Time;durP1;ratioP1;P1;durP2;ratioP2;P2;SDS_P1;SDS_P2;PMS_P1;PMS_P2;Temp;Humidity;BMP_temperature;BMP_pressure;BME280_temperature;BME280_humidity;BME280_pressure;Samples;Min_cycle;Max_cycle;Signal;HPM_P1;HPM_P2
2023/07/31 00:00:46;;;;;;;0.40;0.40;;;21.90;64.70;;;;;;6295262;28;20044;-68
2023/07/31 00:03:47;;;;;;;0.50;0.30;;;21.90;64.60;;;;;;6293902;28;20059;-68
2023/07/31 00:06:48;;;;;;;0.75;0.52;;;21.90;64.60;;;;;;6295031;28;20021;-68
2023/07/31 00:09:48;;;;;;;0.85;0.50;;;21.90;64.60;;;;;;6293897;28;20020;-69
2023/07/31 00:12:49;;;;;;;0.43;0.30;;;21.90;64.60;;;;;;6294810;28;20112;-68
2023/07/31 00:15:50;;;;;;;0.52;0.40;;;21.90;64.60;;;;;;6293585;28;20596;-68
2023/07/31 00:18:51;;;;;;;0.40;0.40;;;21.90;64.70;;;;;;6293494;28;20535;-69
2023/07/31 00:21:51;;;;;;;0.30;0.30;;;21.90;65.50;;;;;;6293880;28;20028;-68
2023/07/31 00:24:52;;;;;;;0.43;0.30;;;21.90;65.40;;;;;;6294403;28;20044;-68
2023/07/31 00:27:52;;;;;;;0.35;0.35;;;21.90;65.50;;;;;;6294347;28;20094;-67
2023/07/31 00:30:53;;;;;;;0.73;0.40;;;21.90;64.60;;;;;;6294492;28;20017;-68
2023/07/31 00:33:54;;;;;;;0.20;0.20;;;21.90;64.60;;;;;;6294266;28;20044;-68
2023/07/31 00:36:54;;;;;;;0.43;0.40;;;21.90;64.60;;;;;;6293064;28;20025;-67
2023/07/31 00:39:55;;;;;;;0.40;0.40;;;21.90;64.60;;;;;;6294570;28;20059;-69
2023/07/31 00:42:56;;;;;;;0.52;0.30;;;21.90;64.60;;;;;;6294078;28;20036;-69
2023/07/31 00:45:56;;;;;;;0.30;0.30;;;21.90;64.60;;;;;;6292483;28;20066;-69
2023/07/31 00:48:57;;;;;;;0.30;0.30;;;21.90;64.60;;;;;;6292899;28;20040;-69
2023/07/31 00:51:59;;;;;;;0.75;0.47;;;21.90;64.60;;;;;;6292848;28;20086;-67
2023/07/31 00:55:00;;;;;;;0.25;0.22;;;21.90;64.60;;;;;;6292499;28;20020;-68
2023/07/31 00:58:01;;;;;;;0.30;0.30;;;21.90;64.60;;;;;;6293789;28;20028;-68
2023/07/31 01:01:02;;;;;;;0.30;0.30;;;21.90;64.60;;;;;;6292413;28;20505;-68
2023/07/31 01:04:03;;;;;;;0.30;0.20;;;21.90;64.60;;;;;;6293293;28;20593;-68
2023/07/31 01:07:34;;;;;;;0.63;0.40;;;21.90;64.60;;;;;;6293927;28;20017;-69
2023/07/31 01:10:45;;;;;;;0.25;0.25;;;21.90;64.60;;;;;;6268881;28;20102;-69
2023/07/31 01:13:46;;;;;;;0.43;0.30;;;21.90;64.60;;;;;;6268741;28;20033;-68
2023/07/31 01:16:47;;;;;;;0.30;0.30;;;21.90;64.60;;;;;;6268874;28;20482;-69
2023/07/31 01:19:49;;;;;;;0.28;0.28;;;21.90;64.60;;;;;;6281124;28;20031;-69
2023/07/31 01:23:14;;;;;;;0.30;0.30;;;21.90;64.60;;;;;;6292140;28;20683;-68
2023/07/31 01:26:22;;;;;;;0.30;0.30;;;21.90;64.60;;;;;;6293398;28;20025;-68
2023/07/31 01:29:31;;;;;;;0.40;0.30;;;21.90;64.60;;;;;;6292165;28;20594;-68
2023/07/31 01:32:32;;;;;;;0.43;0.40;;;21.90;64.60;;;;;;6293055;28;20017;-68
2023/07/31 01:35:37;;;;;;;0.82;0.30;;;21.90;64.60;;;;;;6291645;28;20020;-69
2023/07/31 01:38:38;;;;;;;0.30;0.30;;;21.90;64.60;;;;;;6293542;28;20053;-68
2023/07/31 01:41:38;;;;;;;0.30;0.30;;;21.90;64.60;;;;;;6292217;28;20540;-68
2023/07/31 01:44:39;;;;;;;0.55;0.40;;;21.90;64.60;;;;;;6293077;28;20094;-68
2023/07/31 01:47:40;;;;;;;0.40;0.40;;;21.90;64.70;;;;;;6293154;28;20097;-68
2023/07/31 01:50:41;;;;;;;0.30;0.28;;;21.90;64.70;;;;;;6293124;28;20016;-69
2023/07/31 01:53:41;;;;;;;1.48;0.43;;;21.90;64.70;;;;;;6293016;28;20224;-69
2023/07/31 01:56:42;;;;;;;0.43;0.30;;;21.90;64.70;;;;;;6291627;28;20193;-67
2023/07/31 01:59:43;;;;;;;1.00;0.30;;;21.90;64.60;;;;;;6293185;28;20181;-68
2023/07/31 02:02:43;;;;;;;0.38;0.38;;;21.90;64.60;;;;;;6293084;28;20092;-69
2023/07/31 02:05:48;;;;;;;0.75;0.40;;;21.90;64.70;;;;;;6292839;28;20485;-69
2023/07/31 02:08:49;;;;;;;0.30;0.30;;;21.90;64.60;;;;;;6292921;28;20025;-68
2023/07/31 02:11:50;;;;;;;0.38;0.30;;;21.90;64.60;;;;;;6291712;28;20027;-69
2023/07/31 02:14:51;;;;;;;0.55;0.35;;;21.90;64.70;;;;;;6292835;28;20021;-69
2023/07/31 02:17:51;;;;;;;0.30;0.30;;;21.90;64.70;;;;;;6292963;28;20441;-68
2023/07/31 02:20:52;;;;;;;0.40;0.30;;;21.90;64.70;;;;;;6292803;28;20347;-69
2023/07/31 02:23:53;;;;;;;0.85;0.30;;;21.90;64.70;;;;;;6292738;28;20028;-68
2023/07/31 02:26:54;;;;;;;0.30;0.30;;;21.90;64.70;;;;;;6292472;28;20020;-68
2023/07/31 02:29:55;;;;;;;0.43;0.35;;;21.90;64.60;;;;;;6292869;28;20489;-69
2023/07/31 02:32:55;;;;;;;0.38;0.30;;;21.90;64.70;;;;;;6291288;28;20028;-69
2023/07/31 02:35:56;;;;;;;0.28;0.28;;;21.90;64.70;;;;;;6292630;28;20111;-69
2023/07/31 02:38:57;;;;;;;0.20;0.20;;;21.90;64.70;;;;;;6290965;28;20029;-68
2023/07/31 02:41:57;;;;;;;0.32;0.32;;;21.90;64.70;;;;;;6292741;28;20024;-68
2023/07/31 02:44:58;;;;;;;0.40;0.40;;;21.90;64.70;;;;;;6294571;28;20031;-68
2023/07/31 02:47:59;;;;;;;1.15;0.60;;;21.90;64.70;;;;;;6296664;28;20108;-68
2023/07/31 02:50:59;;;;;;;0.60;0.32;;;21.90;64.70;;;;;;6296723;28;20031;-68
2023/07/31 02:54:00;;;;;;;0.40;0.40;;;21.90;64.70;;;;;;6295771;28;20042;-68
2023/07/31 02:57:01;;;;;;;0.30;0.30;;;21.90;64.70;;;;;;6295437;28;20115;-68
2023/07/31 03:00:04;;;;;;;0.20;0.20;;;21.90;64.70;;;;;;6295213;28;20021;-68
2023/07/31 03:03:04;;;;;;;0.35;0.30;;;21.90;64.70;;;;;;6295457;28;20028;-69
2023/07/31 03:06:05;;;;;;;0.30;0.30;;;21.90;64.70;;;;;;6295320;28;20021;-68
2023/07/31 03:09:06;;;;;;;0.40;0.30;;;21.90;64.70;;;;;;6296548;28;20028;-69
2023/07/31 03:12:07;;;;;;;0.30;0.30;;;21.90;64.70;;;;;;6296716;28;20012;-69
2023/07/31 03:15:09;;;;;;;0.30;0.20;;;21.90;64.70;;;;;;6295108;28;20024;-68
2023/07/31 03:18:09;;;;;;;0.40;0.30;;;21.90;64.70;;;;;;6296458;28;20029;-69
2023/07/31 03:21:10;;;;;;;0.40;0.40;;;21.90;64.70;;;;;;6296269;28;20024;-68
2023/07/31 03:24:12;;;;;;;0.25;0.25;;;21.90;64.70;;;;;;6296127;28;20020;-68
2023/07/31 03:27:12;;;;;;;0.60;0.40;;;21.90;65.60;;;;;;6296029;28;20016;-69
2023/07/31 03:30:13;;;;;;;0.22;0.20;;;21.90;64.70;;;;;;6294981;28;20163;-68
2023/07/31 03:33:14;;;;;;;0.30;0.30;;;21.90;64.70;;;;;;6294379;28;20043;-68
2023/07/31 03:36:15;;;;;;;0.63;0.30;;;21.90;64.70;;;;;;6294881;28;20056;-68
2023/07/31 03:39:16;;;;;;;0.25;0.20;;;21.90;64.80;;;;;;6295967;28;20029;-69
2023/07/31 03:42:17;;;;;;;0.40;0.40;;;21.90;64.80;;;;;;6295806;28;20357;-69
2023/07/31 03:45:18;;;;;;;0.32;0.30;;;21.90;64.70;;;;;;6295145;28;20017;-69
2023/07/31 03:48:18;;;;;;;0.30;0.30;;;21.90;64.80;;;;;;6295476;28;20024;-67
2023/07/31 03:51:19;;;;;;;0.45;0.30;;;21.90;64.70;;;;;;6294304;28;20226;-69
2023/07/31 03:54:20;;;;;;;1.05;0.30;;;21.90;64.70;;;;;;6294153;28;20123;-67
2023/07/31 03:57:20;;;;;;;0.28;0.28;;;21.90;64.70;;;;;;6294498;28;20024;-68
2023/07/31 04:00:40;;;;;;;0.30;0.30;;;21.90;64.80;;;;;;6295377;28;20099;-68
2023/07/31 04:03:41;;;;;;;0.38;0.30;;;21.90;65.00;;;;;;6295378;28;20032;-68
2023/07/31 04:06:41;;;;;;;0.20;0.20;;;21.90;64.70;;;;;;6294234;28;20032;-67
2023/07/31 04:09:42;;;;;;;0.55;0.25;;;21.90;64.80;;;;;;6295514;28;20047;-69
2023/07/31 04:12:43;;;;;;;0.25;0.25;;;21.90;64.80;;;;;;6295456;28;20028;-69
2023/07/31 04:15:49;;;;;;;0.47;0.30;;;21.90;64.80;;;;;;6295377;28;20108;-68
2023/07/31 04:18:50;;;;;;;0.28;0.28;;;21.90;64.70;;;;;;6294804;28;20023;-68
2023/07/31 04:21:51;;;;;;;0.30;0.30;;;21.90;64.70;;;;;;6282744;28;20025;-65
2023/07/31 04:24:51;;;;;;;44.55;0.98;;;21.90;64.70;;;;;;6283773;28;20103;-66
2023/07/31 04:27:52;;;;;;;5.95;0.90;;;21.90;65.20;;;;;;6293166;28;20192;-66
2023/07/31 04:30:53;;;;;;;2.30;0.50;;;21.90;65.00;;;;;;6293422;28;20025;-66
2023/07/31 04:33:54;;;;;;;6.20;0.50;;;22.00;65.00;;;;;;6292078;28;20397;-66
2023/07/31 04:36:55;;;;;;;1.90;0.30;;;22.00;65.00;;;;;;6291639;28;20047;-67
2023/07/31 04:39:55;;;;;;;8.20;0.38;;;22.00;65.00;;;;;;6291977;28;20057;-67
2023/07/31 04:42:56;;;;;;;11.00;0.38;;;21.90;64.80;;;;;;6292481;28;20031;-66
2023/07/31 04:45:57;;;;;;;0.20;0.20;;;21.90;64.80;;;;;;6266837;28;20021;-67
2023/07/31 04:48:58;;;;;;;0.60;0.40;;;21.90;64.80;;;;;;6286211;28;20028;-67
2023/07/31 04:51:59;;;;;;;0.55;0.40;;;21.90;64.80;;;;;;6289107;28;20092;-66
2023/07/31 04:54:59;;;;;;;1.95;0.30;;;21.90;64.80;;;;;;6292457;28;20432;-67
2023/07/31 04:58:00;;;;;;;0.40;0.30;;;21.90;64.90;;;;;;6281995;28;20660;-67
2023/07/31 05:01:01;;;;;;;0.55;0.35;;;21.90;64.90;;;;;;6289688;28;20441;-68
2023/07/31 05:04:02;;;;;;;0.45;0.38;;;21.90;64.80;;;;;;6283164;28;20468;-67
2023/07/31 05:07:03;;;;;;;0.57;0.40;;;21.90;64.70;;;;;;6267573;28;20025;-68
2023/07/31 05:10:04;;;;;;;1.30;0.50;;;21.90;64.90;;;;;;6290800;28;20051;-67
2023/07/31 05:13:05;;;;;;;0.50;0.40;;;22.00;65.00;;;;;;6292680;28;20037;-67
2023/07/31 05:16:06;;;;;;;0.73;0.30;;;22.00;65.70;;;;;;6288769;28;20078;-67
2023/07/31 05:19:07;;;;;;;0.80;0.40;;;22.00;64.70;;;;;;6283009;28;20032;-67
2023/07/31 05:22:08;;;;;;;4.65;0.93;;;22.00;63.10;;;;;;6291952;28;20030;-67
2023/07/31 05:25:08;;;;;;;1.95;0.63;;;22.10;60.80;;;;;;6291659;28;20036;-67
2023/07/31 05:28:09;;;;;;;2.90;0.90;;;22.30;59.80;;;;;;6291866;28;20026;-66
2023/07/31 05:31:10;;;;;;;3.35;1.42;;;22.40;59.00;;;;;;6290912;28;20020;-66
2023/07/31 05:34:11;;;;;;;11.40;1.55;;;22.50;58.50;;;;;;6285937;28;20044;-67
2023/07/31 05:37:12;;;;;;;8.05;1.52;;;22.70;58.10;;;;;;6289919;28;20391;-66
2023/07/31 05:40:12;;;;;;;26.05;2.40;;;22.80;57.60;;;;;;6286910;28;20025;-66
2023/07/31 05:43:14;;;;;;;14.65;2.03;;;22.90;57.50;;;;;;6292344;28;20032;-67
2023/07/31 05:46:15;;;;;;;16.05;2.03;;;22.90;57.00;;;;;;6290099;28;20017;-65
2023/07/31 05:49:15;;;;;;;6.07;1.60;;;23.00;56.80;;;;;;6292384;28;20059;-67
2023/07/31 05:52:16;;;;;;;10.10;2.47;;;23.00;56.60;;;;;;6291494;28;20036;-67
2023/07/31 05:55:17;;;;;;;7.13;1.60;;;23.00;56.50;;;;;;6257342;28;20926;-65
2023/07/31 05:58:18;;;;;;;5.15;1.40;;;23.10;56.60;;;;;;6282047;28;20026;-67
2023/07/31 06:01:21;;;;;;;6.32;1.70;;;23.10;56.30;;;;;;6290058;28;20029;-67
2023/07/31 06:04:21;;;;;;;12.18;1.85;;;23.10;56.10;;;;;;6279562;28;20031;-66
2023/07/31 06:07:22;;;;;;;3.58;1.42;;;23.10;56.20;;;;;;6292699;28;20426;-67
2023/07/31 06:10:23;;;;;;;6.40;1.67;;;23.20;56.10;;;;;;6282352;28;20066;-67
2023/07/31 06:13:23;;;;;;;5.75;1.70;;;23.10;56.00;;;;;;6293729;28;20095;-67
2023/07/31 06:16:26;;;;;;;5.55;1.52;;;23.10;55.90;;;;;;6283720;28;20028;-67
2023/07/31 06:19:27;;;;;;;4.15;1.30;;;23.10;55.90;;;;;;6296560;28;20029;-67
2023/07/31 06:22:28;;;;;;;4.68;2.00;;;23.20;55.90;;;;;;6297224;28;20025;-67
2023/07/31 06:25:29;;;;;;;5.00;1.50;;;23.20;55.70;;;;;;6297769;28;20554;-66
2023/07/31 06:28:31;;;;;;;4.30;1.20;;;23.20;55.60;;;;;;6298705;28;20020;-67
2023/07/31 06:31:31;;;;;;;2.25;1.00;;;23.20;55.30;;;;;;6298923;28;20032;-67
2023/07/31 06:34:32;;;;;;;2.47;1.27;;;23.20;55.20;;;;;;6298489;28;20528;-66
2023/07/31 06:37:34;;;;;;;2.17;1.02;;;23.30;55.10;;;;;;6297280;28;20024;-68
2023/07/31 06:40:35;;;;;;;3.00;1.23;;;23.30;55.10;;;;;;6298692;28;20059;-67
2023/07/31 06:43:36;;;;;;;2.25;1.10;;;23.20;55.10;;;;;;6298761;28;20032;-67
2023/07/31 06:46:36;;;;;;;2.63;1.25;;;23.20;55.00;;;;;;6297155;28;20129;-67
2023/07/31 06:49:37;;;;;;;2.42;1.10;;;23.30;54.90;;;;;;6298351;28;20017;-67
2023/07/31 06:52:39;;;;;;;4.72;1.20;;;23.30;54.70;;;;;;6297314;28;20020;-67
2023/07/31 06:55:40;;;;;;;5.18;1.13;;;23.30;54.60;;;;;;6296949;28;20036;-67
2023/07/31 06:58:40;;;;;;;2.80;1.00;;;23.30;54.60;;;;;;6297317;28;20439;-67
2023/07/31 07:01:41;;;;;;;2.45;0.98;;;23.30;54.60;;;;;;6298002;28;20031;-67
2023/07/31 07:04:42;;;;;;;3.30;1.20;;;23.30;54.60;;;;;;6296818;28;20415;-68
2023/07/31 07:07:43;;;;;;;1.63;0.90;;;23.30;54.60;;;;;;6296192;28;20496;-66
2023/07/31 07:10:44;;;;;;;3.17;1.00;;;23.30;54.50;;;;;;6296893;28;20044;-67
2023/07/31 07:13:45;;;;;;;1.60;0.95;;;23.30;54.30;;;;;;6297881;28;20027;-67
2023/07/31 07:16:50;;;;;;;1.90;0.90;;;23.30;54.30;;;;;;6296439;28;20082;-66
2023/07/31 07:19:51;;;;;;;1.55;0.80;;;23.30;54.10;;;;;;6296721;28;20029;-67
2023/07/31 07:22:51;;;;;;;0.95;0.60;;;23.30;54.30;;;;;;6297911;28;20052;-67
2023/07/31 07:25:52;;;;;;;1.65;0.82;;;23.30;54.10;;;;;;6297677;28;20021;-68
2023/07/31 07:28:53;;;;;;;2.22;0.90;;;23.30;54.10;;;;;;6295916;28;20540;-68
2023/07/31 07:31:53;;;;;;;1.50;0.80;;;23.30;54.10;;;;;;6296329;28;20021;-68
2023/07/31 07:34:55;;;;;;;2.80;0.90;;;23.30;54.00;;;;;;6295916;28;20080;-67
2023/07/31 07:37:56;;;;;;;2.03;0.88;;;23.30;54.00;;;;;;6297390;28;20109;-67
2023/07/31 07:40:57;;;;;;;1.30;0.70;;;23.30;54.00;;;;;;6297422;28;20024;-66
2023/07/31 07:43:58;;;;;;;1.58;1.00;;;23.30;53.70;;;;;;6297153;28;20036;-66
2023/07/31 07:46:58;;;;;;;1.65;0.82;;;23.30;53.90;;;;;;6295877;28;20455;-66
2023/07/31 07:49:59;;;;;;;1.15;0.70;;;23.30;53.60;;;;;;6296949;28;20441;-68
2023/07/31 07:53:00;;;;;;;0.80;0.65;;;23.30;53.60;;;;;;6295900;28;20507;-66
2023/07/31 07:56:01;;;;;;;1.98;0.90;;;23.30;53.50;;;;;;6296606;28;20100;-66
2023/07/31 07:59:02;;;;;;;0.80;0.60;;;23.30;53.60;;;;;;6295641;28;20025;-66
2023/07/31 08:02:02;;;;;;;1.00;0.70;;;23.30;53.40;;;;;;6296689;28;20388;-68
2023/07/31 08:05:03;;;;;;;1.02;0.60;;;23.30;53.40;;;;;;6297228;28;20100;-68
2023/07/31 08:08:04;;;;;;;1.70;0.77;;;23.30;53.40;;;;;;6295219;28;20397;-68
2023/07/31 08:11:05;;;;;;;2.45;0.73;;;23.30;53.50;;;;;;6296879;28;20384;-67
2023/07/31 08:14:06;;;;;;;0.82;0.55;;;23.30;53.40;;;;;;6294817;28;20031;-66
2023/07/31 08:17:07;;;;;;;2.13;0.70;;;23.30;53.30;;;;;;6296394;28;20338;-66
2023/07/31 08:20:09;;;;;;;1.65;0.85;;;23.30;53.40;;;;;;6296541;28;20482;-67
2023/07/31 08:23:09;;;;;;;1.10;0.60;;;23.30;53.30;;;;;;6296248;28;20107;-67
2023/07/31 08:26:18;;;;;;;1.33;0.52;;;23.30;53.20;;;;;;6295869;28;20021;-67
2023/07/31 08:29:18;;;;;;;0.77;0.50;;;23.40;53.20;;;;;;6294638;28;20028;-68
2023/07/31 08:32:19;;;;;;;1.25;0.77;;;23.40;53.10;;;;;;6294805;28;20143;-67
2023/07/31 08:35:20;;;;;;;0.70;0.60;;;23.40;53.00;;;;;;6294299;28;20048;-68
2023/07/31 08:38:21;;;;;;;1.23;0.60;;;23.40;52.90;;;;;;6296065;28;20032;-68
2023/07/31 08:41:21;;;;;;;0.70;0.50;;;23.40;52.90;;;;;;6295205;28;20025;-67
2023/07/31 08:44:22;;;;;;;1.23;0.80;;;23.40;52.90;;;;;;6295853;28;20401;-68
2023/07/31 08:47:24;;;;;;;1.13;0.60;;;23.40;53.70;;;;;;6295476;28;20074;-67
2023/07/31 08:50:24;;;;;;;0.45;0.40;;;23.40;52.90;;;;;;6294554;28;20032;-68
2023/07/31 08:53:25;;;;;;;1.83;0.50;;;23.40;53.50;;;;;;6295390;28;20056;-65
2023/07/31 08:56:27;;;;;;;0.38;0.38;;;23.40;52.80;;;;;;6294037;28;20029;-68
2023/07/31 08:59:31;;;;;;;0.68;0.50;;;23.40;52.80;;;;;;6295492;28;20481;-68
2023/07/31 09:02:45;;;;;;;0.55;0.45;;;23.40;52.70;;;;;;6295240;28;20028;-68
2023/07/31 09:05:47;;;;;;;0.70;0.40;;;23.40;52.60;;;;;;6293820;28;20024;-68
2023/07/31 09:08:47;;;;;;;0.88;0.57;;;23.40;52.70;;;;;;6295435;28;20024;-67
2023/07/31 09:11:50;;;;;;;0.57;0.43;;;23.40;52.70;;;;;;6295399;28;20024;-67
2023/07/31 09:14:51;;;;;;;0.80;0.50;;;23.40;52.70;;;;;;6293563;28;20210;-67
2023/07/31 09:18:00;;;;;;;0.70;0.50;;;23.40;52.60;;;;;;6294115;28;20053;-66
2023/07/31 09:21:05;;;;;;;0.60;0.60;;;23.40;52.60;;;;;;6272890;28;20128;-68
2023/07/31 09:24:06;;;;;;;;;;;23.40;52.50;;;;;;6295115;28;20523;-66
2023/07/31 09:27:07;;;;;;;0.50;0.40;;;23.40;52.50;;;;;;6292838;28;19905;-66
2023/07/31 09:30:08;;;;;;;0.75;0.47;;;23.40;52.60;;;;;;6301851;28;20021;-66
2023/07/31 09:33:09;;;;;;;0.77;0.50;;;23.40;52.50;;;;;;6292644;28;20350;-66
2023/07/31 09:36:10;;;;;;;1.00;0.50;;;23.40;52.60;;;;;;6292992;28;20119;-66
2023/07/31 09:39:12;;;;;;;0.57;0.38;;;23.40;52.50;;;;;;6291523;28;20016;-66
2023/07/31 09:42:12;;;;;;;0.63;0.40;;;23.40;52.70;;;;;;6294753;28;20021;-66
2023/07/31 09:45:14;;;;;;;0.38;0.38;;;23.40;52.60;;;;;;6294413;28;20033;-65
2023/07/31 09:48:16;;;;;;;0.43;0.32;;;23.40;52.80;;;;;;6295083;28;20112;-65
2023/07/31 09:51:25;;;;;;;0.95;0.50;;;23.40;52.80;;;;;;6295169;28;20103;-65
2023/07/31 09:54:26;;;;;;;1.38;0.30;;;23.40;52.80;;;;;;6299603;28;20039;-65
2023/07/31 09:57:28;;;;;;;0.80;0.50;;;23.40;52.70;;;;;;6299081;28;20028;-65
2023/07/31 10:00:29;;;;;;;0.50;0.50;;;23.40;52.80;;;;;;6299102;28;20051;-66
2023/07/31 10:03:32;;;;;;;0.70;0.52;;;23.40;52.50;;;;;;6298615;28;20024;-66
2023/07/31 10:06:35;;;;;;;0.90;0.50;;;23.40;52.60;;;;;;6298184;28;20025;-66
2023/07/31 10:09:35;;;;;;;0.57;0.50;;;23.50;52.70;;;;;;6297792;28;20020;-65
2023/07/31 10:12:38;;;;;;;1.98;0.55;;;23.40;52.70;;;;;;6297522;28;20028;-67
2023/07/31 10:15:40;;;;;;;0.70;0.50;;;23.50;52.90;;;;;;6283529;28;20036;-67
2023/07/31 10:18:42;;;;;;;0.70;0.50;;;23.40;52.50;;;;;;6278274;28;20029;-68
2023/07/31 10:21:43;;;;;;;0.77;0.50;;;23.40;52.50;;;;;;6289590;28;20036;-68
2023/07/31 10:24:45;;;;;;;1.10;0.50;;;23.50;52.50;;;;;;6298811;28;20020;-69
2023/07/31 10:27:47;;;;;;;0.57;0.45;;;23.40;52.40;;;;;;6297661;28;20016;-68
2023/07/31 10:30:50;;;;;;;1.00;0.50;;;23.40;52.30;;;;;;6282524;28;20017;-67
2023/07/31 10:33:55;;;;;;;2.70;0.40;;;23.50;52.30;;;;;;6293967;28;20832;-67
2023/07/31 10:37:28;;;;;;;2.55;0.50;;;23.50;52.30;;;;;;6274317;28;20039;-68
2023/07/31 10:40:29;;;;;;;2.00;0.45;;;23.50;52.20;;;;;;6298820;28;20025;-67
2023/07/31 10:43:32;;;;;;;0.70;0.40;;;23.50;52.10;;;;;;6298320;28;20055;-67
2023/07/31 10:46:33;;;;;;;0.65;0.43;;;23.50;52.10;;;;;;6284279;28;20103;-68
2023/07/31 10:49:34;;;;;;;0.40;0.30;;;23.40;52.00;;;;;;6298228;28;20017;-66
2023/07/31 10:52:35;;;;;;;1.25;0.50;;;23.50;52.10;;;;;;6298330;28;20017;-67
2023/07/31 10:55:47;;;;;;;1.05;0.40;;;23.50;52.00;;;;;;6298334;28;20047;-67
2023/07/31 10:59:01;;;;;;;0.30;0.30;;;23.40;52.10;;;;;;6297064;28;20023;-67
2023/07/31 11:02:03;;;;;;;0.63;0.30;;;23.50;51.90;;;;;;6298157;28;20035;-67
2023/07/31 11:05:10;;;;;;;0.50;0.40;;;23.50;52.00;;;;;;6296034;28;20032;-68
2023/07/31 11:08:22;;;;;;;1.17;0.60;;;23.50;51.90;;;;;;6296823;28;20016;-67
2023/07/31 11:11:23;;;;;;;1.73;0.70;;;23.60;51.70;;;;;;6298446;28;20120;-69
2023/07/31 11:14:24;;;;;;;2.85;1.20;;;23.70;51.40;;;;;;6297372;28;20028;-70
2023/07/31 11:17:26;;;;;;;2.63;1.00;;;23.80;51.20;;;;;;6297933;28;20036;-69
2023/07/31 11:20:29;;;;;;;10.07;1.10;;;23.80;51.10;;;;;;6273256;28;20029;-67
2023/07/31 11:23:31;;;;;;;4.35;1.60;;;23.80;50.80;;;;;;6274409;28;20433;-67
2023/07/31 11:26:31;;;;;;;25.20;2.70;;;23.80;50.90;;;;;;6280805;28;20078;-67
2023/07/31 11:29:32;;;;;;;21.77;3.88;;;23.80;51.50;;;;;;6291595;28;20400;-67
2023/07/31 11:32:33;;;;;;;15.20;4.05;;;23.70;51.80;;;;;;6297341;28;20032;-67
2023/07/31 11:35:41;;;;;;;18.33;3.97;;;23.70;51.80;;;;;;6290135;28;20637;-71
2023/07/31 11:38:42;;;;;;;12.43;3.75;;;23.70;51.80;;;;;;6281725;28;20071;-67
2023/07/31 11:41:43;;;;;;;13.82;3.58;;;23.70;51.70;;;;;;6295985;28;20029;-67
2023/07/31 11:44:47;;;;;;;13.45;3.08;;;23.70;51.70;;;;;;6283661;28;20040;-68
2023/07/31 11:47:49;;;;;;;12.52;3.50;;;23.70;51.70;;;;;;6289407;28;20078;-67
2023/07/31 11:50:56;;;;;;;10.80;3.33;;;23.70;51.70;;;;;;6296818;28;20032;-69
2023/07/31 11:54:00;;;;;;;7.63;2.90;;;23.60;51.70;;;;;;6296666;28;20032;-67
2023/07/31 11:57:01;;;;;;;9.85;2.30;;;23.70;51.40;;;;;;6297044;28;20024;-68
2023/07/31 12:00:03;;;;;;;14.00;3.33;;;23.80;51.50;;;;;;6296535;28;20055;-67
2023/07/31 12:03:04;;;;;;;14.23;2.97;;;23.90;51.20;;;;;;6287870;28;20100;-67
2023/07/31 12:06:04;;;;;;;9.60;3.42;;;23.90;51.00;;;;;;6281585;28;20039;-67
2023/07/31 12:09:06;;;;;;;9.65;2.92;;;23.90;50.90;;;;;;6295302;28;20036;-67
2023/07/31 12:12:09;;;;;;;14.48;3.67;;;24.00;50.70;;;;;;6296922;28;20117;-66
2023/07/31 12:15:16;;;;;;;12.75;3.42;;;24.00;50.60;;;;;;6276035;28;20051;-66
2023/07/31 12:18:20;;;;;;;14.00;3.53;;;24.00;50.30;;;;;;6269956;28;20025;-67
2023/07/31 12:21:21;;;;;;;18.17;4.47;;;24.10;50.30;;;;;;6293379;28;20024;-66
2023/07/31 12:24:22;;;;;;;14.35;4.10;;;24.10;50.20;;;;;;6295488;28;20108;-67
2023/07/31 12:27:25;;;;;;;24.42;5.05;;;24.00;50.80;;;;;;6295677;28;20025;-68
2023/07/31 12:30:35;;;;;;;20.77;5.38;;;24.00;51.10;;;;;;6295978;28;20103;-71
2023/07/31 12:33:38;;;;;;;20.88;5.18;;;24.00;51.40;;;;;;6294647;28;20045;-66
2023/07/31 12:36:39;;;;;;;14.18;4.60;;;23.90;51.40;;;;;;6295424;28;20029;-66
2023/07/31 12:39:40;;;;;;;20.42;4.43;;;23.90;51.40;;;;;;6294226;28;20138;-66
2023/07/31 12:42:41;;;;;;;18.65;4.43;;;23.80;51.40;;;;;;6295758;28;20021;-66
2023/07/31 12:45:42;;;;;;;16.60;4.43;;;23.80;51.30;;;;;;6295325;28;20020;-67
2023/07/31 12:48:43;;;;;;;19.60;4.75;;;23.80;51.40;;;;;;6295611;28;20088;-66
2023/07/31 12:51:44;;;;;;;13.57;3.55;;;23.80;51.40;;;;;;6295404;28;20074;-66
2023/07/31 12:54:45;;;;;;;12.63;3.85;;;23.80;51.30;;;;;;6295286;28;20470;-65
2023/07/31 12:57:46;;;;;;;16.30;4.10;;;23.80;51.30;;;;;;6289882;28;20447;-66
2023/07/31 13:00:46;;;;;;;15.43;3.78;;;23.80;51.30;;;;;;6280394;28;20035;-66
2023/07/31 13:03:47;;;;;;;9.57;3.50;;;23.80;51.30;;;;;;6293772;28;20030;-67
2023/07/31 13:06:48;;;;;;;14.40;3.65;;;23.80;51.20;;;;;;6294593;28;20024;-66
2023/07/31 13:09:49;;;;;;;11.25;3.63;;;23.80;51.20;;;;;;6295204;28;20064;-66
2023/07/31 13:12:50;;;;;;;10.73;3.72;;;23.80;51.20;;;;;;6295069;28;20035;-66
2023/07/31 13:15:51;;;;;;;15.57;3.38;;;23.80;51.20;;;;;;6280063;28;20103;-66
2023/07/31 13:18:53;;;;;;;7.15;3.28;;;23.80;51.20;;;;;;6294732;28;20036;-66
2023/07/31 13:21:54;;;;;;;11.15;3.75;;;23.80;51.20;;;;;;6295192;28;20104;-66
2023/07/31 13:24:55;;;;;;;12.20;3.70;;;23.80;51.60;;;;;;6293185;28;20085;-66
2023/07/31 13:27:56;;;;;;;9.07;3.15;;;23.80;51.20;;;;;;6292633;28;20025;-66
2023/07/31 13:30:57;;;;;;;9.73;2.55;;;23.80;51.10;;;;;;6293981;28;20603;-67
2023/07/31 13:33:58;;;;;;;12.10;3.35;;;23.80;51.10;;;;;;6294489;28;20063;-68
2023/07/31 13:36:58;;;;;;;7.88;2.88;;;23.80;51.10;;;;;;6293945;28;20180;-67
2023/07/31 13:39:59;;;;;;;11.40;2.70;;;23.80;51.10;;;;;;6294346;28;20040;-67
2023/07/31 13:43:00;;;;;;;13.88;2.75;;;23.70;50.90;;;;;;6294040;28;20050;-67
2023/07/31 13:46:06;;;;;;;7.03;2.60;;;23.80;50.90;;;;;;6293850;28;20021;-68
2023/07/31 13:49:07;;;;;;;9.68;2.92;;;23.80;51.00;;;;;;6293984;28;20090;-67
2023/07/31 13:52:07;;;;;;;8.15;2.75;;;23.70;50.90;;;;;;6277889;28;20919;-67
2023/07/31 13:55:08;;;;;;;5.80;2.40;;;23.70;50.90;;;;;;6286023;28;20047;-66
2023/07/31 13:58:09;;;;;;;8.27;2.70;;;23.80;51.00;;;;;;6290552;28;20039;-67
2023/07/31 14:01:10;;;;;;;5.45;2.40;;;23.70;50.80;;;;;;6280616;28;20055;-66
2023/07/31 14:04:11;;;;;;;6.03;2.25;;;23.80;50.80;;;;;;6293685;28;20093;-66
2023/07/31 14:07:12;;;;;;;6.65;2.92;;;23.80;50.80;;;;;;6293182;28;20504;-66
2023/07/31 14:10:13;;;;;;;5.97;2.10;;;23.70;50.70;;;;;;6277998;28;20020;-66
2023/07/31 14:13:14;;;;;;;7.15;2.80;;;23.80;50.70;;;;;;6293397;28;20096;-66
2023/07/31 14:16:14;;;;;;;4.13;2.30;;;23.70;50.70;;;;;;6286493;28;20101;-67
2023/07/31 14:19:15;;;;;;;4.65;1.73;;;23.80;50.80;;;;;;6292915;28;20025;-66
2023/07/31 14:22:28;;;;;;;5.88;2.10;;;23.80;50.80;;;;;;6292215;28;20021;-68
2023/07/31 14:25:29;;;;;;;4.85;2.20;;;23.70;50.70;;;;;;6293846;28;20021;-67
2023/07/31 14:28:29;;;;;;;5.53;2.25;;;23.70;50.60;;;;;;6293269;28;20043;-66
2023/07/31 14:31:30;;;;;;;4.90;2.22;;;23.70;50.60;;;;;;6292747;28;20498;-66
2023/07/31 14:34:36;;;;;;;5.50;1.95;;;23.70;50.70;;;;;;6293724;28;20113;-68
2023/07/31 14:37:41;;;;;;;7.15;1.90;;;23.70;50.60;;;;;;6291546;28;20032;-68
2023/07/31 14:40:42;;;;;;;5.40;2.20;;;23.70;50.70;;;;;;6296022;28;20485;-67
2023/07/31 14:43:43;;;;;;;4.07;1.92;;;23.80;50.70;;;;;;6296209;28;20033;-67
2023/07/31 14:46:44;;;;;;;4.95;1.90;;;23.70;50.60;;;;;;6289104;28;20021;-66
2023/07/31 14:49:44;;;;;;;4.60;1.70;;;23.80;50.50;;;;;;6286975;28;20031;-67
2023/07/31 14:52:45;;;;;;;4.90;1.73;;;23.80;50.50;;;;;;6296524;28;20017;-67
2023/07/31 14:55:46;;;;;;;3.95;1.60;;;23.70;50.40;;;;;;6297233;28;20031;-66
2023/07/31 14:58:47;;;;;;;4.63;2.10;;;23.70;50.50;;;;;;6295079;28;20051;-66
2023/07/31 15:01:48;;;;;;;5.93;1.80;;;23.70;50.50;;;;;;6296498;28;20060;-67
2023/07/31 15:04:49;;;;;;;4.32;1.58;;;23.70;50.60;;;;;;6296844;28;20025;-66
2023/07/31 15:07:50;;;;;;;4.85;1.80;;;23.70;50.50;;;;;;6292530;28;20029;-69
2023/07/31 15:10:56;;;;;;;3.35;1.90;;;23.70;50.60;;;;;;6291822;28;20024;-67
2023/07/31 15:13:57;;;;;;;3.65;2.00;;;23.80;50.70;;;;;;6295791;28;20436;-66
2023/07/31 15:16:58;;;;;;;4.50;1.63;;;23.80;50.70;;;;;;6296168;28;20029;-67
2023/07/31 15:19:59;;;;;;;3.20;1.55;;;23.70;50.60;;;;;;6295646;28;20036;-66
2023/07/31 15:23:00;;;;;;;2.42;1.48;;;23.80;50.70;;;;;;6296043;28;20029;-66
2023/07/31 15:26:01;;;;;;;4.32;1.75;;;23.70;50.70;;;;;;6280432;28;20484;-66
2023/07/31 15:29:08;;;;;;;3.50;1.70;;;23.80;50.80;;;;;;6295953;28;20070;-66
2023/07/31 15:32:09;;;;;;;2.55;1.70;;;23.70;50.80;;;;;;6296442;28;20596;-67
2023/07/31 15:35:10;;;;;;;2.88;1.40;;;23.80;50.70;;;;;;6296630;28;20064;-67
2023/07/31 15:38:11;;;;;;;2.47;1.13;;;23.80;50.80;;;;;;6294017;28;20025;-67
2023/07/31 15:41:11;;;;;;;3.45;1.65;;;23.80;50.80;;;;;;6294603;28;20113;-67
2023/07/31 15:44:12;;;;;;;3.10;1.60;;;23.80;50.80;;;;;;6295839;28;20024;-66